sensor_id;sensor_type;location;lat;lon;timestamp;pressure;altitude;pressure_sealevel;temperature;humidity
55077;BME280;40971;44.702;11.030;2024-02-21T00:05:25;102450.38;;;4.31;100.00
55077;BME280;40971;44.702;11.030;2024-02-21T00:15:28;102458.34;;;4.77;100.00
55077;BME280;40971;44.702;11.030;2024-02-21T00:25:30;102459.69;;;4.68;100.00
55077;BME280;40971;44.702;11.030;2024-02-21T00:35:32;102455.44;;;4.50;100.00
55077;BME280;40971;44.702;11.030;2024-02-21T00:45:35;102464.94;;;4.35;100.00
55077;BME280;40971;44.702;11.030;2024-02-21T00:55:37;102457.34;;;3.81;100.00
55077;BME280;40971;44.702;11.030;2024-02-21T01:05:39;102458.19;;;3.81;100.00
55077;BME280;40971;44.702;11.030;2024-02-21T01:15:44;102444.03;;;4.20;100.00
55077;BME280;40971;44.702;11.030;2024-02-21T01:25:47;102441.78;;;3.96;100.00
55077;BME280;40971;44.702;11.030;2024-02-21T01:35:49;102442.91;;;3.22;100.00
55077;BME280;40971;44.702;11.030;2024-02-21T01:45:55;102442.03;;;3.05;100.00
55077;BME280;40971;44.702;11.030;2024-02-21T01:55:58;102437.91;;;3.01;100.00
55077;BME280;40971;44.702;11.030;2024-02-21T02:06:01;102440.66;;;2.98;100.00
55077;BME280;40971;44.702;11.030;2024-02-21T02:16:05;102444.19;;;3.14;100.00
55077;BME280;40971;44.702;11.030;2024-02-21T02:26:08;102446.56;;;3.54;100.00
55077;BME280;40971;44.702;11.030;2024-02-21T02:36:12;102428.31;;;2.65;100.00
55077;BME280;40971;44.702;11.030;2024-02-21T02:46:14;102434.16;;;2.70;100.00
55077;BME280;40971;44.702;11.030;2024-02-21T02:56:17;102445.91;;;2.77;100.00
55077;BME280;40971;44.702;11.030;2024-02-21T03:06:20;102440.09;;;2.91;100.00
55077;BME280;40971;44.702;11.030;2024-02-21T03:16:23;102431.09;;;2.79;100.00
55077;BME280;40971;44.702;11.030;2024-02-21T03:26:25;102430.41;;;2.57;100.00
55077;BME280;40971;44.702;11.030;2024-02-21T03:36:26;102426.38;;;2.70;100.00
55077;BME280;40971;44.702;11.030;2024-02-21T03:46:31;102430.13;;;2.63;100.00
55077;BME280;40971;44.702;11.030;2024-02-21T03:56:39;102434.22;;;2.50;100.00
55077;BME280;40971;44.702;11.030;2024-02-21T04:06:49;102443.81;;;2.48;100.00
55077;BME280;40971;44.702;11.030;2024-02-21T04:16:51;102454.31;;;1.66;100.00
55077;BME280;40971;44.702;11.030;2024-02-21T04:26:53;102457.50;;;2.13;100.00
55077;BME280;40971;44.702;11.030;2024-02-21T04:36:58;102455.78;;;2.32;100.00
55077;BME280;40971;44.702;11.030;2024-02-21T04:47:01;102448.22;;;2.46;100.00
55077;BME280;40971;44.702;11.030;2024-02-21T04:57:05;102452.66;;;2.44;100.00
55077;BME280;40971;44.702;11.030;2024-02-21T05:07:07;102456.84;;;2.08;100.00
55077;BME280;40971;44.702;11.030;2024-02-21T05:17:10;102458.56;;;2.09;100.00
55077;BME280;40971;44.702;11.030;2024-02-21T05:27:13;102458.75;;;2.43;100.00
55077;BME280;40971;44.702;11.030;2024-02-21T05:37:17;102445.81;;;2.23;100.00
55077;BME280;40971;44.702;11.030;2024-02-21T05:47:19;102454.84;;;1.74;100.00
55077;BME280;40971;44.702;11.030;2024-02-21T05:57:22;102465.34;;;1.91;100.00
55077;BME280;40971;44.702;11.030;2024-02-21T06:07:23;102468.13;;;2.07;100.00
55077;BME280;40971;44.702;11.030;2024-02-21T06:17:26;102463.00;;;2.25;100.00
55077;BME280;40971;44.702;11.030;2024-02-21T06:27:28;102468.41;;;1.81;100.00
55077;BME280;40971;44.702;11.030;2024-02-21T06:37:30;102466.78;;;1.98;100.00
55077;BME280;40971;44.702;11.030;2024-02-21T06:47:34;102491.97;;;2.35;100.00
55077;BME280;40971;44.702;11.030;2024-02-21T06:57:37;102488.19;;;2.62;100.00
55077;BME280;40971;44.702;11.030;2024-02-21T07:07:40;102505.66;;;3.15;100.00
55077;BME280;40971;44.702;11.030;2024-02-21T07:17:42;102515.78;;;3.91;100.00
55077;BME280;40971;44.702;11.030;2024-02-21T07:27:45;102517.69;;;4.72;100.00
55077;BME280;40971;44.702;11.030;2024-02-21T07:37:48;102525.16;;;5.56;100.00
55077;BME280;40971;44.702;11.030;2024-02-21T07:47:51;102519.47;;;6.38;100.00
55077;BME280;40971;44.702;11.030;2024-02-21T07:57:56;102526.47;;;6.80;97.24
55077;BME280;40971;44.702;11.030;2024-02-21T08:07:58;102527.63;;;7.17;94.38
55077;BME280;40971;44.702;11.030;2024-02-21T08:18:01;102533.84;;;7.82;91.53
55077;BME280;40971;44.702;11.030;2024-02-21T08:28:05;102524.59;;;8.66;89.21
55077;BME280;40971;44.702;11.030;2024-02-21T08:38:07;102538.88;;;9.48;83.61
55077;BME280;40971;44.702;11.030;2024-02-21T08:48:09;102536.63;;;10.02;81.31
55077;BME280;40971;44.702;11.030;2024-02-21T08:58:12;102534.94;;;10.35;79.32
55077;BME280;40971;44.702;11.030;2024-02-21T09:08:13;102536.22;;;10.19;80.12
55077;BME280;40971;44.702;11.030;2024-02-21T09:18:18;102522.63;;;10.47;78.02
55077;BME280;40971;44.702;11.030;2024-02-21T09:28:21;102514.16;;;10.66;77.31
55077;BME280;40971;44.702;11.030;2024-02-21T09:38:24;102509.97;;;10.85;74.79
55077;BME280;40971;44.702;11.030;2024-02-21T09:48:56;102503.41;;;10.80;77.04
55077;BME280;40971;44.702;11.030;2024-02-21T09:59:01;102507.97;;;11.32;77.13
55077;BME280;40971;44.702;11.030;2024-02-21T10:09:07;102498.81;;;11.47;77.43
55077;BME280;40971;44.702;11.030;2024-02-21T10:19:20;102481.78;;;12.03;75.18
55077;BME280;40971;44.702;11.030;2024-02-21T10:29:23;102474.03;;;12.02;76.39
55077;BME280;40971;44.702;11.030;2024-02-21T10:39:26;102467.84;;;12.43;73.87
55077;BME280;40971;44.702;11.030;2024-02-21T10:49:29;102451.00;;;12.64;73.55
55077;BME280;40971;44.702;11.030;2024-02-21T10:59:34;102454.31;;;13.06;73.45
55077;BME280;40971;44.702;11.030;2024-02-21T11:09:37;102450.03;;;13.43;71.08
55077;BME280;40971;44.702;11.030;2024-02-21T11:19:38;102435.16;;;13.62;69.03
55077;BME280;40971;44.702;11.030;2024-02-21T11:29:45;102406.66;;;14.12;67.26
55077;BME280;40971;44.702;11.030;2024-02-21T11:39:48;102378.53;;;14.11;63.07
55077;BME280;40971;44.702;11.030;2024-02-21T11:49:50;102358.97;;;14.58;64.20
55077;BME280;40971;44.702;11.030;2024-02-21T11:59:56;102335.56;;;14.98;63.80
55077;BME280;40971;44.702;11.030;2024-02-21T12:10:00;102328.97;;;15.46;62.60
55077;BME280;40971;44.702;11.030;2024-02-21T12:20:03;102318.94;;;15.83;59.95
55077;BME280;40971;44.702;11.030;2024-02-21T12:30:23;102295.63;;;16.03;58.82
55077;BME280;40971;44.702;11.030;2024-02-21T12:40:25;102288.31;;;15.55;58.82
55077;BME280;40971;44.702;11.030;2024-02-21T12:50:28;102268.19;;;15.78;58.32
55077;BME280;40971;44.702;11.030;2024-02-21T13:00:29;102248.34;;;15.90;57.60
55077;BME280;40971;44.702;11.030;2024-02-21T13:10:33;102234.41;;;16.86;55.58
55077;BME280;40971;44.702;11.030;2024-02-21T13:20:36;102218.66;;;16.93;54.32
55077;BME280;40971;44.702;11.030;2024-02-21T13:30:39;102205.84;;;16.40;54.94
55077;BME280;40971;44.702;11.030;2024-02-21T13:40:41;102181.59;;;17.16;53.79
55077;BME280;40971;44.702;11.030;2024-02-21T13:50:44;102172.00;;;17.45;52.59
55077;BME280;40971;44.702;11.030;2024-02-21T14:00:48;102158.16;;;18.20;49.50
55077;BME280;40971;44.702;11.030;2024-02-21T14:10:49;102149.13;;;18.21;52.04
55077;BME280;40971;44.702;11.030;2024-02-21T14:20:50;102135.91;;;17.59;50.39
55077;BME280;40971;44.702;11.030;2024-02-21T14:30:55;102118.38;;;17.34;47.77
55077;BME280;40971;44.702;11.030;2024-02-21T14:40:59;102102.81;;;17.23;49.11
55077;BME280;40971;44.702;11.030;2024-02-21T14:51:00;102093.53;;;17.19;48.29
55077;BME280;40971;44.702;11.030;2024-02-21T15:01:01;102080.59;;;17.46;47.94
55077;BME280;40971;44.702;11.030;2024-02-21T15:11:03;102065.72;;;16.99;48.16
55077;BME280;40971;44.702;11.030;2024-02-21T15:21:05;102057.03;;;16.66;48.30
55077;BME280;40971;44.702;11.030;2024-02-21T15:31:08;102047.22;;;16.58;52.72
55077;BME280;40971;44.702;11.030;2024-02-21T15:41:13;102033.66;;;16.37;52.27
55077;BME280;40971;44.702;11.030;2024-02-21T15:51:18;102038.31;;;16.11;52.01
55077;BME280;40971;44.702;11.030;2024-02-21T16:01:21;102024.22;;;15.70;52.86
55077;BME280;40971;44.702;11.030;2024-02-21T16:11:25;102022.97;;;15.24;55.75
55077;BME280;40971;44.702;11.030;2024-02-21T16:21:28;102029.81;;;14.93;53.92
55077;BME280;40971;44.702;11.030;2024-02-21T16:31:31;102019.66;;;14.54;59.12
55077;BME280;40971;44.702;11.030;2024-02-21T16:41:33;102007.88;;;13.80;61.88
55077;BME280;40971;44.702;11.030;2024-02-21T16:51:38;102022.28;;;13.05;68.69
55077;BME280;40971;44.702;11.030;2024-02-21T17:01:43;102023.59;;;12.55;65.42
55077;BME280;40971;44.702;11.030;2024-02-21T17:11:45;102019.41;;;12.62;64.70
55077;BME280;40971;44.702;11.030;2024-02-21T17:21:47;102036.34;;;12.22;65.59
55077;BME280;40971;44.702;11.030;2024-02-21T17:31:50;102037.31;;;11.93;67.38
55077;BME280;40971;44.702;11.030;2024-02-21T17:41:52;102039.25;;;11.81;68.22
55077;BME280;40971;44.702;11.030;2024-02-21T17:51:55;102042.22;;;11.29;70.85
55077;BME280;40971;44.702;11.030;2024-02-21T18:01:59;102036.31;;;10.96;72.71
55077;BME280;40971;44.702;11.030;2024-02-21T18:12:04;102039.13;;;10.44;75.54
55077;BME280;40971;44.702;11.030;2024-02-21T18:22:09;102012.56;;;10.06;79.45
55077;BME280;40971;44.702;11.030;2024-02-21T18:32:12;102000.66;;;9.38;82.02
55077;BME280;40971;44.702;11.030;2024-02-21T18:42:14;101991.06;;;9.16;84.70
55077;BME280;40971;44.702;11.030;2024-02-21T18:52:19;101979.06;;;9.03;84.94
55077;BME280;40971;44.702;11.030;2024-02-21T19:02:20;101975.03;;;8.99;84.99
55077;BME280;40971;44.702;11.030;2024-02-21T19:12:25;101971.84;;;8.40;84.63
55077;BME280;40971;44.702;11.030;2024-02-21T19:22:28;101966.34;;;8.32;87.74
55077;BME280;40971;44.702;11.030;2024-02-21T19:32:34;101965.50;;;8.31;87.92
55077;BME280;40971;44.702;11.030;2024-02-21T19:42:36;101959.59;;;7.59;88.28
55077;BME280;40971;44.702;11.030;2024-02-21T19:52:40;101949.44;;;7.20;92.11
55077;BME280;40971;44.702;11.030;2024-02-21T20:02:44;101939.88;;;7.67;91.83
55077;BME280;40971;44.702;11.030;2024-02-21T20:12:47;101938.84;;;7.45;91.22
55077;BME280;40971;44.702;11.030;2024-02-21T20:22:50;101934.38;;;6.64;92.74
55077;BME280;40971;44.702;11.030;2024-02-21T20:32:53;101929.34;;;6.48;95.88
55077;BME280;40971;44.702;11.030;2024-02-21T20:42:56;101923.03;;;6.76;94.12
55077;BME280;40971;44.702;11.030;2024-02-21T20:52:59;101914.50;;;6.61;95.35
55077;BME280;40971;44.702;11.030;2024-02-21T21:03:04;101912.22;;;6.57;94.82
55077;BME280;40971;44.702;11.030;2024-02-21T21:13:07;101882.25;;;6.50;96.34
55077;BME280;40971;44.702;11.030;2024-02-21T21:23:10;101889.81;;;6.65;96.37
55077;BME280;40971;44.702;11.030;2024-02-21T21:33:12;101883.59;;;6.42;95.53
55077;BME280;40971;44.702;11.030;2024-02-21T21:43:14;101866.75;;;6.10;94.93
55077;BME280;40971;44.702;11.030;2024-02-21T21:53:19;101863.84;;;6.02;99.56
55077;BME280;40971;44.702;11.030;2024-02-21T22:03:21;101852.22;;;5.68;100.00
55077;BME280;40971;44.702;11.030;2024-02-21T22:13:23;101850.00;;;5.24;100.00
55077;BME280;40971;44.702;11.030;2024-02-21T22:23:26;101848.22;;;5.38;100.00
55077;BME280;40971;44.702;11.030;2024-02-21T22:33:28;101850.84;;;5.38;100.00
55077;BME280;40971;44.702;11.030;2024-02-21T22:43:33;101811.31;;;5.44;100.00
55077;BME280;40971;44.702;11.030;2024-02-21T22:53:36;101806.31;;;5.41;100.00
55077;BME280;40971;44.702;11.030;2024-02-21T23:03:40;101799.59;;;4.72;98.98
55077;BME280;40971;44.702;11.030;2024-02-21T23:13:43;101796.09;;;4.59;100.00
55077;BME280;40971;44.702;11.030;2024-02-21T23:23:46;101785.94;;;4.42;100.00
55077;BME280;40971;44.702;11.030;2024-02-21T23:33:48;101780.63;;;4.02;100.00
55077;BME280;40971;44.702;11.030;2024-02-21T23:43:49;101786.44;;;4.20;100.00
55077;BME280;40971;44.702;11.030;2024-02-21T23:53:51;101786.31;;;3.95;100.00
